createdAt,value
2019-02-24T00:01:49.267Z,27.13
2019-02-24T00:11:54.589Z,29.27
2019-02-24T00:21:59.835Z,31.80
2019-02-24T00:32:05.157Z,33.97
2019-02-24T00:42:10.590Z,26.77
2019-02-24T00:52:15.963Z,23.67
2019-02-24T01:02:21.313Z,28.07
2019-02-24T01:12:26.626Z,27.33
2019-02-24T01:22:32.035Z,27.83
2019-02-24T01:32:37.234Z,29.37
2019-02-24T01:42:42.574Z,23.53
2019-02-24T01:52:47.818Z,26.90
2019-02-24T02:02:53.124Z,22.17
2019-02-24T02:12:58.529Z,29.83
2019-02-24T02:23:03.826Z,27.13
2019-02-24T02:33:09.108Z,27.27
2019-02-24T02:43:14.524Z,29.37
2019-02-24T02:53:19.822Z,30.17
2019-02-24T03:03:25.424Z,32.67
2019-02-24T03:13:30.802Z,37.30
2019-02-24T03:23:36.116Z,37.63
2019-02-24T03:33:44.648Z,31.10
2019-02-24T03:43:48.368Z,40.77
2019-02-24T03:53:53.832Z,37.63
2019-02-24T04:03:59.187Z,33.50
2019-02-24T04:14:04.670Z,31.83
2019-02-24T04:24:09.981Z,29.50
2019-02-24T04:34:15.505Z,34.40
2019-02-24T04:44:21.218Z,36.23
2019-02-24T04:54:26.587Z,35.80
2019-02-24T05:04:32.050Z,44.10
2019-02-24T05:14:38.260Z,30.60
2019-02-24T05:24:43.631Z,37.47
2019-02-24T05:34:48.932Z,31.40
2019-02-24T05:44:54.454Z,33.97
2019-02-24T05:54:59.845Z,38.30
2019-02-24T06:05:05.312Z,35.60
2019-02-24T06:15:10.725Z,32.87
2019-02-24T06:25:16.282Z,38.43
2019-02-24T06:35:21.569Z,36.40
2019-02-24T06:45:27.199Z,37.10
2019-02-24T06:55:32.874Z,36.67
2019-02-24T07:05:38.723Z,34.23
2019-02-24T07:15:44.149Z,37.80
2019-02-24T07:25:49.561Z,35.33
2019-02-24T07:35:55.007Z,34.33
2019-02-24T07:46:00.400Z,39.97
2019-02-24T07:56:05.704Z,31.67
2019-02-24T08:06:11.165Z,34.20
2019-02-24T08:16:16.748Z,32.93
2019-02-24T08:26:22.001Z,34.30
2019-02-24T08:36:27.492Z,29.60
2019-02-24T08:46:32.838Z,28.33
2019-02-24T08:56:39.254Z,27.00
2019-02-24T09:06:44.681Z,32.33
2019-02-24T09:16:50.092Z,28.63
2019-02-24T09:26:55.414Z,31.53
2019-02-24T09:37:00.846Z,25.63
2019-02-24T09:47:06.155Z,29.73
2019-02-24T09:57:11.500Z,26.00
2019-02-24T10:07:17.196Z,25.10
2019-02-24T10:17:22.624Z,24.63
2019-02-24T10:27:28.219Z,23.90
2019-02-24T10:37:33.553Z,22.37
2019-02-24T10:47:39.136Z,29.43
2019-02-24T10:57:45.566Z,21.63
2019-02-24T11:07:52.313Z,23.73
2019-02-24T11:17:57.754Z,22.90
2019-02-24T11:28:03.012Z,24.13
2019-02-24T11:38:08.513Z,25.43
2019-02-24T11:48:13.982Z,26.43
2019-02-24T11:58:20.290Z,28.33
2019-02-24T12:08:25.713Z,24.60
2019-02-24T12:18:31.271Z,24.43
2019-02-24T12:28:36.683Z,45.70
2019-02-24T12:38:42.170Z,27.13
2019-02-24T12:48:47.505Z,24.83
2019-02-24T12:58:52.897Z,26.33
2019-02-24T13:08:58.234Z,27.37
2019-02-24T13:19:03.579Z,25.03
2019-02-24T13:29:08.973Z,29.17
2019-02-24T13:39:14.497Z,32.90
2019-02-24T13:49:19.868Z,31.67
2019-02-24T13:59:25.555Z,34.40
2019-02-24T14:09:30.980Z,34.37
2019-02-24T14:19:36.414Z,28.97
2019-02-24T14:29:41.731Z,33.80
2019-02-24T14:39:47.367Z,33.87
2019-02-24T14:49:52.711Z,36.63
2019-02-24T14:59:58.119Z,30.60
2019-02-24T15:10:03.513Z,33.87
2019-02-24T15:20:10.597Z,32.77
2019-02-24T15:30:22.479Z,27.00
2019-02-24T15:40:27.889Z,31.13
2019-02-24T15:50:33.228Z,49.70
2019-02-24T16:00:38.811Z,34.03
2019-02-24T16:10:44.050Z,37.13
2019-02-24T16:20:49.324Z,49.83
2019-02-24T16:30:54.899Z,43.50
2019-02-24T16:41:00.259Z,46.63
2019-02-24T16:51:05.666Z,41.23
2019-02-24T17:01:11.179Z,63.87
2019-02-24T17:11:16.596Z,40.47
2019-02-24T17:21:22.066Z,57.43
2019-02-24T17:31:28.637Z,44.13
2019-02-24T17:41:34.350Z,48.30
2019-02-24T17:51:41.473Z,42.83
2019-02-24T18:01:46.864Z,45.13
2019-02-24T18:11:52.497Z,41.27
2019-02-24T18:21:58.629Z,42.73
2019-02-24T18:32:03.904Z,46.87
2019-02-24T18:42:09.321Z,38.73
2019-02-24T18:52:14.891Z,42.47
2019-02-24T19:02:20.570Z,48.03
2019-02-24T19:12:26.059Z,48.97
2019-02-24T19:22:33.781Z,46.90
2019-02-24T19:32:39.123Z,46.93
2019-02-24T19:42:44.821Z,51.93
2019-02-24T19:52:50.490Z,51.93
2019-02-24T20:02:55.873Z,47.40
2019-02-24T20:13:01.257Z,49.50
2019-02-24T20:23:06.588Z,51.40
2019-02-24T20:33:11.931Z,45.50
2019-02-24T20:43:17.721Z,48.93
2019-02-24T20:53:23.239Z,50.40
2019-02-24T21:03:28.657Z,46.50
2019-02-24T21:13:34.185Z,45.00
2019-02-24T21:23:39.560Z,43.33
2019-02-24T21:33:45.023Z,59.47
2019-02-24T21:43:50.415Z,42.53
2019-02-24T21:53:55.792Z,42.33
2019-02-24T22:04:01.501Z,42.53
2019-02-24T22:14:07.153Z,40.03
2019-02-24T22:24:12.490Z,43.00
2019-02-24T22:34:18.030Z,50.60
2019-02-24T22:44:23.586Z,42.70
2019-02-24T22:54:28.996Z,49.00
2019-02-24T23:04:34.381Z,42.27
2019-02-24T23:14:39.747Z,46.80
2019-02-24T23:24:45.605Z,46.07
2019-02-24T23:34:51.034Z,45.80
2019-02-24T23:44:57.309Z,47.40
2019-02-24T23:55:02.790Z,42.80
